Архив погоды в Бикине

Метеограмма Бикин
Четверг, 29 Июня
Время местн. Темп Ветер Видим Явления Облачность нижн/средн/верх Атм. давл. Влжн Точка росы ВНГО R Сост. почвы Tg s
Напр Скр Прв ур.ст ур.м изм
07:00 +18.9° В,Ю-В 2 - 10 км - облачно 749 755 -0.2 90% +17.3° более 2.5 км 0 Влажная (без луж) +17° -
04:00 +19.1° В,Ю-В 2 - 10 км - облачно 749 755 -0.8 90% +17.5° 1 км - - - -
01:00 +19.6° В,Ю-В 3 - 10 км - облачно 750 756 -1.1 90% +18° 1 км - - - -
Среда, 28 Июня
Время местн. Темп Ветер Видим Явления Облачность нижн/средн/верх Атм. давл. Влжн Точка росы ВНГО R Сост. почвы Tg s
Напр Скр Прв ур.ст ур.м изм
22:00 +19.3° Ю-В 1 - 10 км - облачно 751 757 +0.2 89% +17.5° 1 км - - - -
19:00 +20.9° В,Ю-В 2 - 10 км - облачно 751 757 -0.5 85% +18.2° 1 км 4 - - -
16:00 +21.3° Ю-В 1 - 20 км небо без изменений {дождь} облачно 752 757 -0.5 83% +18.2° 1 км - - - -
13:00 +19° Ю-В 2 - 10 км слабый непрерывный дождь облачно 752 758 -0.6 90% +17.4° 1 км - - - -
10:00 +18.1° Ю-В 1 - 10 км слабый непрерывный дождь {ливневые осадки} облачно 753 759 -0.4 92% +16.7° 1 км - - - -
07:00 +17.3° В,Ю-В 1 - 4 км слабый ливневый дождь облачно 753 759 +0.7 93% +16.1° 1 км 0.8 Влажная (без луж) - -
04:00 +17.3° В 1 - 4 км дымка облачно 752 758 -0.2 92% +16° 1 км - - - -
01:00 +17.6° В 1 - 4 км дымка облачно 753 759 +0.4 92% +16.3° 1 км - - - -
Вторник, 27 Июня
Время местн. Темп Ветер Видим Явления Облачность нижн/средн/верх Атм. давл. Влжн Точка росы ВНГО R Сост. почвы Tg s
Напр Скр Прв ур.ст ур.м изм
22:00 +19.6° В 1 - 10 км - облачно 752 758 +0.7 85% +17° 1 км - - - -
19:00 +23.1° З 1 - 20 км - облачно 752 757 +0.5 66% +16.3° 1 км 0 - - -
16:00 +25° З,С-З 1 - 20 км - облачно 751 757 +0.1 57% +15.8° 1 км - - - -
13:00 +22.3° Ю 2 - 20 км - облачно 751 757 +0.1 65% +15.5° 1 км - - - -
10:00 +18.4° Ю,Ю-В 2 - 10 км - облачно 751 757 +0.8 77% +14.2° 1 км - - - -
07:00 +17° В,С-В 1 - 20 км - облачно 750 756 +0.5 80% +13.6° 1 км 0 Влажная (без луж) +15° -
04:00 +17° В,Ю-В 1 - 10 км - облачно 750 756 -0.1 78% +13.2° более 2.5 км - - - -
01:00 +17.8° Ю-В 2 - 10 км - облачно 750 756 +0.1 75% +13.3° 1 км - - - -
Понедельник, 26 Июня
Время местн. Темп Ветер Видим Явления Облачность нижн/средн/верх Атм. давл. Влжн Точка росы ВНГО R Сост. почвы Tg s
Напр Скр Прв ур.ст ур.м изм
22:00 +18.1° В,Ю-В 1 - 20 км небо без изменений {ливневые осадки} облачно 750 756 +0.5 76% +13.8° 1 км - - - -
19:00 +18.9° В,Ю-В 2 - 20 км небо без изменений {ливневые осадки} облачно 749 755 -0.6 77% +14.7° более 2.5 км 0 - - -
16:00 +18.8° Ю,Ю-В 1 - 20 км слабый ливневый дождь облачно 750 756 -0.2 76% +14.4° 1 км - - - -
13:00 +20.3° Ю,Ю-З 1 - более 50 км - облачно 750 756 0 57% +11.6° 1 км - - - -
10:00 +18.1° С-З 1 - более 50 км - облачно 751 757 +0.1 68% +12.2° 1 км - - - -
07:00 +10.9° штиль 0 - 10 км - ясно 751 757 +0.6 86% +8.7° более 2.5 км 0 Влажная (без луж) +85° -
04:00 +8.9° В 1 - 20 км - ясно 750 756 +0.4 95% +8.1° более 2.5 км - - - -